Time;durP1;ratioP1;P1;durP2;ratioP2;P2;SDS_P1;SDS_P2;PMS_P1;PMS_P2;Temp;Humidity;BMP_temperature;BMP_pressure;BME280_temperature;BME280_humidity;BME280_pressure;Samples;Min_cycle;Max_cycle;Signal;HPM_P1;HPM_P2
2021/01/21 00:01:08;;;;;;;0.00;0.00;;;16.10;64.20;;;;;;4194101;28;20299;-41
2021/01/21 00:03:30;;;;;;;0.10;0.10;;;16.00;64.30;;;;;;4195708;28;20080;-41
2021/01/21 00:05:51;;;;;;;0.00;0.00;;;16.00;64.30;;;;;;4195389;28;20044;-41
2021/01/21 00:08:13;;;;;;;0.10;0.10;;;16.10;64.20;;;;;;4195320;28;20131;-41
2021/01/21 00:10:34;;;;;;;0.08;0.08;;;16.10;64.10;;;;;;4195156;28;20056;-43
2021/01/21 00:12:54;;;;;;;0.00;0.00;;;16.10;64.20;;;;;;4195242;28;20052;-41
2021/01/21 00:15:16;;;;;;;0.00;0.00;;;16.10;64.20;;;;;;4195166;28;20109;-41
2021/01/21 00:17:37;;;;;;;0.00;0.00;;;16.10;64.20;;;;;;4195189;28;20491;-40
2021/01/21 00:19:59;;;;;;;0.00;0.00;;;16.10;64.30;;;;;;4195118;28;20063;-40
2021/01/21 00:22:20;;;;;;;0.00;0.00;;;16.10;64.50;;;;;;4194737;28;20131;-41
2021/01/21 00:24:41;;;;;;;0.20;0.20;;;16.10;64.60;;;;;;4195019;28;20052;-41
2021/01/21 00:27:01;;;;;;;0.00;0.00;;;16.10;64.60;;;;;;4195500;28;20059;-41
2021/01/21 00:29:22;;;;;;;0.30;0.30;;;16.10;64.50;;;;;;4194959;28;20405;-41
2021/01/21 00:31:43;;;;;;;0.00;0.00;;;16.20;64.20;;;;;;4196119;28;20052;-41
2021/01/21 00:34:05;;;;;;;0.00;0.00;;;16.30;64.00;;;;;;4198643;28;20060;-41
2021/01/21 00:36:27;;;;;;;0.00;0.00;;;16.30;63.80;;;;;;4197739;28;20109;-41
2021/01/21 00:38:52;;;;;;;0.55;0.50;;;16.30;63.80;;;;;;4197823;28;20048;-40
2021/01/21 00:41:13;;;;;;;1.05;0.95;;;16.40;63.60;;;;;;4197055;28;20135;-41
2021/01/21 00:43:34;;;;;;;0.00;0.00;;;16.50;63.30;;;;;;4181784;28;20071;-41
2021/01/21 00:45:56;;;;;;;0.55;0.45;;;16.50;63.10;;;;;;4180429;28;20091;-44
2021/01/21 00:48:17;;;;;;;23.10;0.85;;;16.50;63.10;;;;;;4181133;28;20128;-42
2021/01/21 00:50:38;;;;;;;;;;;16.50;63.30;;;;;;4181539;28;20049;-41
2021/01/21 00:53:04;;;;;;;0.00;0.00;;;16.50;63.30;;;;;;4195102;28;19928;-42
2021/01/21 00:55:25;;;;;;;0.00;0.00;;;16.50;63.50;;;;;;4197816;28;20084;-40
2021/01/21 00:57:46;;;;;;;1.13;0.77;;;16.50;63.60;;;;;;4197087;28;20060;-41
2021/01/21 01:00:08;;;;;;;0.00;0.00;;;16.50;63.40;;;;;;4196201;28;20521;-40
2021/01/21 01:02:35;;;;;;;0.00;0.00;;;16.50;63.30;;;;;;4196411;28;20052;-40
2021/01/21 01:04:57;;;;;;;0.25;0.25;;;16.50;63.40;;;;;;4196155;28;20084;-40
2021/01/21 01:07:18;;;;;;;;;;;16.50;63.50;;;;;;4196641;28;20577;-41
2021/01/21 01:09:40;;;;;;;0.00;0.00;;;16.40;63.60;;;;;;4196325;28;19920;-42
2021/01/21 01:12:01;;;;;;;0.00;0.00;;;16.40;63.80;;;;;;4196190;28;20052;-41
2021/01/21 01:14:28;;;;;;;0.75;0.75;;;16.40;63.90;;;;;;4179753;28;20535;-40
2021/01/21 01:16:49;;;;;;;;;;;16.30;64.10;;;;;;4180636;28;20088;-40
2021/01/21 01:19:11;;;;;;;0.00;0.00;;;16.40;64.20;;;;;;4181078;28;20016;-42
2021/01/21 01:21:32;;;;;;;;;;;16.50;63.70;;;;;;4186564;28;20102;-40
2021/01/21 01:23:53;;;;;;;0.00;0.00;;;16.70;63.00;;;;;;4197038;28;19981;-41
2021/01/21 01:26:19;;;;;;;0.00;0.00;;;16.80;62.50;;;;;;4196418;28;20071;-41
2021/01/21 01:28:43;;;;;;;0.00;0.00;;;16.90;62.30;;;;;;4196568;28;20183;-41
2021/01/21 01:31:04;;;;;;;0.05;0.05;;;16.90;62.00;;;;;;4196034;28;20080;-41
2021/01/21 01:33:25;;;;;;;0.20;0.20;;;17.00;62.10;;;;;;4195983;28;20072;-41
2021/01/21 01:35:46;;;;;;;;;;;16.90;62.00;;;;;;4180373;28;20088;-41
2021/01/21 01:38:08;;;;;;;5.03;0.55;;;16.90;62.10;;;;;;4195936;28;19931;-41
2021/01/21 01:40:30;;;;;;;0.00;0.00;;;16.80;62.20;;;;;;4196859;28;20076;-42
2021/01/21 01:42:52;;;;;;;2.05;1.10;;;16.80;62.40;;;;;;4195635;28;20118;-40
2021/01/21 01:45:16;;;;;;;0.00;0.00;;;16.70;62.60;;;;;;4195602;28;20059;-41
2021/01/21 01:47:43;;;;;;;0.00;0.00;;;16.60;62.80;;;;;;4196584;28;20486;-41
2021/01/21 01:50:14;;;;;;;0.35;0.35;;;16.60;63.20;;;;;;4179019;28;20578;-41
2021/01/21 01:52:41;;;;;;;0.00;0.00;;;16.50;63.50;;;;;;4191194;28;20079;-42
2021/01/21 01:55:16;;;;;;;0.10;0.10;;;16.40;63.70;;;;;;4195877;28;20470;-40
2021/01/21 01:57:50;;;;;;;1.33;0.45;;;16.40;63.90;;;;;;4195737;28;20135;-41
2021/01/21 02:00:16;;;;;;;0.03;0.03;;;16.60;63.50;;;;;;4195238;28;20135;-41
2021/01/21 02:02:50;;;;;;;0.00;0.00;;;16.60;63.10;;;;;;4195861;28;20160;-41
2021/01/21 02:05:12;;;;;;;8.77;0.65;;;16.70;63.00;;;;;;4195375;28;20151;-41
2021/01/21 02:07:38;;;;;;;0.00;0.00;;;16.80;62.90;;;;;;4195191;28;20059;-41
2021/01/21 02:10:05;;;;;;;0.20;0.20;;;16.80;62.50;;;;;;4196198;28;20053;-41
2021/01/21 02:12:47;;;;;;;0.00;0.00;;;16.80;62.40;;;;;;4195249;28;20048;-40
2021/01/21 02:15:21;;;;;;;0.00;0.00;;;16.80;62.40;;;;;;4196245;28;20058;-41
2021/01/21 02:17:52;;;;;;;0.00;0.00;;;16.80;62.40;;;;;;4195454;28;20053;-41
2021/01/21 02:20:46;;;;;;;0.00;0.00;;;16.80;62.60;;;;;;4196368;28;20056;-41
2021/01/21 02:24:02;;;;;;;0.00;0.00;;;16.70;62.90;;;;;;4194960;28;20864;-41
2021/01/21 02:26:31;;;;;;;;;;;16.60;63.10;;;;;;4195502;28;20056;-41
2021/01/21 02:29:12;;;;;;;0.00;0.00;;;16.60;63.50;;;;;;4195367;28;19958;-41
2021/01/21 02:31:56;;;;;;;0.00;0.00;;;16.50;63.80;;;;;;4194555;28;20175;-41
2021/01/21 02:34:22;;;;;;;0.00;0.00;;;16.50;63.70;;;;;;4194663;28;20049;-40
2021/01/21 02:36:51;;;;;;;0.00;0.00;;;16.60;63.50;;;;;;4195006;28;20056;-40
2021/01/21 02:39:35;;;;;;;0.00;0.00;;;16.70;63.40;;;;;;4196117;28;20486;-40
2021/01/21 02:41:57;;;;;;;1.30;1.20;;;16.60;63.30;;;;;;4195897;28;20623;-41
2021/01/21 02:44:18;;;;;;;0.00;0.00;;;16.60;63.40;;;;;;4196283;28;20494;-41
2021/01/21 02:46:39;;;;;;;0.03;0.03;;;16.60;63.40;;;;;;4178437;28;20171;-41
2021/01/21 02:49:01;;;;;;;0.00;0.00;;;16.50;63.60;;;;;;4192584;28;20517;-41
2021/01/21 02:51:33;;;;;;;0.00;0.00;;;16.50;63.80;;;;;;4196002;28;20144;-41
2021/01/21 02:54:14;;;;;;;0.00;0.00;;;16.40;64.00;;;;;;4195702;28;20135;-41
2021/01/21 02:56:36;;;;;;;;;;;16.40;64.30;;;;;;4195542;28;20071;-41
2021/01/21 02:58:58;;;;;;;0.00;0.00;;;16.50;64.10;;;;;;4195763;28;19928;-40
2021/01/21 03:01:19;;;;;;;0.00;0.00;;;16.60;63.60;;;;;;4195406;28;20534;-41
2021/01/21 03:03:48;;;;;;;0.00;0.00;;;16.70;63.40;;;;;;4195847;28;20059;-40
2021/01/21 03:06:13;;;;;;;0.00;0.00;;;16.70;63.20;;;;;;4195517;28;20103;-45
2021/01/21 03:08:37;;;;;;;0.00;0.00;;;16.70;63.10;;;;;;4195082;28;20063;-40
2021/01/21 03:11:09;;;;;;;0.10;0.10;;;16.70;63.00;;;;;;4196129;28;20060;-41
2021/01/21 03:13:30;;;;;;;;;;;16.80;62.60;;;;;;4196624;28;20051;-41
2021/01/21 03:15:51;;;;;;;0.00;0.00;;;16.90;62.20;;;;;;4194485;28;20019;-41
2021/01/21 03:18:14;;;;;;;0.32;0.30;;;16.90;62.10;;;;;;4194429;28;20540;-41
2021/01/21 03:20:35;;;;;;;;;;;16.90;62.20;;;;;;4195089;28;20076;-41
2021/01/21 03:22:57;;;;;;;0.00;0.00;;;16.90;62.20;;;;;;4178424;28;19925;-41
2021/01/21 03:25:19;;;;;;;0.00;0.00;;;16.90;62.40;;;;;;4178247;28;20075;-41
2021/01/21 03:27:48;;;;;;;0.00;0.00;;;17.00;62.20;;;;;;4178062;28;20053;-41
2021/01/21 03:30:17;;;;;;;0.00;0.00;;;17.10;61.80;;;;;;4177736;28;20051;-41
2021/01/21 03:32:39;;;;;;;0.00;0.00;;;17.10;61.80;;;;;;4178809;28;20060;-41
2021/01/21 03:35:01;;;;;;;0.17;0.17;;;17.10;61.70;;;;;;4177788;28;20135;-41
2021/01/21 03:37:22;;;;;;;0.00;0.00;;;17.10;61.80;;;;;;4190791;28;20060;-45
2021/01/21 03:39:45;;;;;;;0.00;0.00;;;17.10;61.80;;;;;;4194551;28;20095;-42
2021/01/21 03:42:27;;;;;;;;;;;17.00;61.90;;;;;;4194535;28;20052;-41
2021/01/21 03:45:26;;;;;;;0.00;0.00;;;17.00;62.00;;;;;;4160224;28;19947;-42
2021/01/21 03:47:54;;;;;;;0.00;0.00;;;17.10;61.80;;;;;;4159993;28;20128;-40
2021/01/21 03:50:16;;;;;;;0.00;0.00;;;17.20;61.10;;;;;;4160355;28;20052;-41
2021/01/21 03:52:37;;;;;;;0.08;0.08;;;17.30;60.60;;;;;;4192691;28;20053;-41
2021/01/21 03:55:04;;;;;;;0.00;0.00;;;17.40;60.60;;;;;;4193831;28;20098;-41
2021/01/21 03:57:27;;;;;;;0.00;0.00;;;17.30;60.60;;;;;;4193924;28;20048;-40
2021/01/21 04:00:01;;;;;;;0.25;0.15;;;17.30;60.80;;;;;;4194209;28;20049;-41
2021/01/21 04:02:24;;;;;;;0.00;0.00;;;17.10;61.20;;;;;;4195411;28;20391;-41
2021/01/21 04:05:14;;;;;;;0.00;0.00;;;17.10;61.50;;;;;;4191114;28;20052;-41
2021/01/21 04:07:35;;;;;;;0.00;0.00;;;16.90;61.80;;;;;;4197149;28;20091;-41
2021/01/21 04:09:55;;;;;;;0.00;0.00;;;16.90;61.90;;;;;;4198300;28;20525;-41
2021/01/21 04:12:34;;;;;;;2.28;1.40;;;17.00;61.70;;;;;;4196935;28;20063;-41
2021/01/21 04:14:55;;;;;;;0.13;0.13;;;17.10;61.50;;;;;;4197282;28;20052;-41
2021/01/21 04:17:17;;;;;;;0.00;0.00;;;17.10;61.30;;;;;;4197666;28;20113;-41
2021/01/21 04:19:40;;;;;;;0.00;0.00;;;17.10;61.20;;;;;;4197309;28;20048;-41
2021/01/21 04:22:01;;;;;;;0.00;0.00;;;17.20;61.20;;;;;;4196992;28;20079;-41
2021/01/21 04:24:24;;;;;;;0.25;0.25;;;17.20;61.10;;;;;;4196868;28;20056;-41
2021/01/21 04:26:50;;;;;;;0.00;0.00;;;17.20;61.00;;;;;;4197296;28;20060;-41
2021/01/21 04:29:17;;;;;;;0.00;0.00;;;17.10;61.00;;;;;;4196700;28;20060;-41
2021/01/21 04:31:44;;;;;;;0.95;0.93;;;17.10;61.20;;;;;;4196969;28;20080;-41
2021/01/21 04:34:11;;;;;;;0.00;0.00;;;17.00;62.30;;;;;;4196833;28;20048;-41
2021/01/21 04:36:34;;;;;;;0.00;0.00;;;16.90;61.70;;;;;;4197037;28;20052;-41
2021/01/21 04:38:55;;;;;;;0.00;0.00;;;16.90;61.90;;;;;;4196430;28;20123;-41
2021/01/21 04:41:18;;;;;;;0.13;0.13;;;17.00;61.40;;;;;;4197000;28;20525;-41
2021/01/21 04:43:48;;;;;;;0.00;0.00;;;17.30;61.50;;;;;;4197882;28;20127;-44
2021/01/21 04:46:19;;;;;;;0.00;0.00;;;17.40;60.10;;;;;;4197127;28;20729;-43
2021/01/21 04:48:46;;;;;;;0.00;0.00;;;17.50;59.90;;;;;;4196698;28;20090;-42
2021/01/21 04:51:09;;;;;;;0.00;0.00;;;17.40;60.80;;;;;;4184577;28;20495;-41
2021/01/21 04:53:38;;;;;;;0.00;0.00;;;17.40;60.20;;;;;;4196960;28;20048;-41
2021/01/21 04:56:08;;;;;;;0.00;0.00;;;17.30;60.50;;;;;;4196308;28;20148;-41
2021/01/21 04:58:43;;;;;;;0.00;0.00;;;17.20;60.90;;;;;;4197581;28;20040;-41
2021/01/21 05:01:04;;;;;;;0.00;0.00;;;17.20;61.00;;;;;;4198178;28;20056;-41
2021/01/21 05:03:29;;;;;;;0.00;0.00;;;17.30;60.50;;;;;;4181105;28;20495;-41
2021/01/21 05:06:12;;;;;;;0.00;0.00;;;17.40;60.40;;;;;;4185771;28;20055;-41
2021/01/21 05:08:35;;;;;;;0.00;0.00;;;17.40;60.40;;;;;;4196403;28;20133;-42
2021/01/21 05:11:18;;;;;;;0.00;0.00;;;17.40;60.40;;;;;;4197411;28;20141;-43
2021/01/21 05:14:18;;;;;;;0.00;0.00;;;17.40;60.50;;;;;;4197891;28;20525;-41
2021/01/21 05:16:59;;;;;;;0.00;0.00;;;17.40;60.70;;;;;;4197300;28;20138;-41
2021/01/21 05:19:40;;;;;;;0.00;0.00;;;17.30;60.90;;;;;;4196901;28;20052;-41
2021/01/21 05:22:27;;;;;;;0.10;0.10;;;17.30;61.30;;;;;;4186225;28;20145;-41
2021/01/21 05:25:14;;;;;;;0.00;0.00;;;17.30;61.10;;;;;;4197504;28;20471;-41
2021/01/21 05:27:48;;;;;;;0.00;0.00;;;17.50;60.90;;;;;;4195978;28;20056;-41
2021/01/21 05:30:29;;;;;;;0.52;0.52;;;17.70;60.30;;;;;;4196856;28;20055;-45
2021/01/21 05:33:00;;;;;;;0.00;0.00;;;17.80;59.60;;;;;;4197022;28;20502;-44
2021/01/21 05:35:52;;;;;;;0.00;0.00;;;18.00;59.10;;;;;;4195122;28;20063;-43
2021/01/21 05:38:14;;;;;;;0.00;0.00;;;18.00;59.10;;;;;;4196101;28;20053;-41
2021/01/21 05:40:55;;;;;;;0.00;0.00;;;17.80;59.40;;;;;;4180932;28;20048;-42
2021/01/21 05:43:47;;;;;;;0.20;0.20;;;17.70;59.80;;;;;;4197106;28;20447;-42
2021/01/21 05:46:25;;;;;;;0.00;0.00;;;17.60;59.90;;;;;;4184647;28;20063;-41
2021/01/21 05:48:47;;;;;;;0.00;0.00;;;17.60;59.80;;;;;;4196097;28;20133;-41
2021/01/21 05:51:10;;;;;;;0.00;0.00;;;17.60;59.80;;;;;;4195207;28;20550;-41
2021/01/21 05:53:31;;;;;;;0.00;0.00;;;17.50;60.00;;;;;;4196631;28;20076;-41
2021/01/21 05:55:56;;;;;;;0.40;0.40;;;17.50;60.30;;;;;;4195357;28;20062;-42
2021/01/21 05:58:27;;;;;;;0.00;0.00;;;17.30;60.50;;;;;;4195283;28;20056;-41
2021/01/21 06:00:50;;;;;;;0.00;0.00;;;17.20;60.90;;;;;;4195439;28;20075;-41
2021/01/21 06:03:38;;;;;;;0.00;0.00;;;17.10;61.20;;;;;;4196634;28;20131;-41
2021/01/21 06:06:18;;;;;;;0.00;0.00;;;16.90;61.70;;;;;;4196647;28;20094;-42
2021/01/21 06:08:39;;;;;;;0.00;0.00;;;16.80;61.90;;;;;;4196754;28;20060;-41
2021/01/21 06:11:11;;;;;;;0.00;0.00;;;16.80;62.10;;;;;;4196233;28;20044;-40
2021/01/21 06:13:35;;;;;;;0.00;0.00;;;16.70;62.40;;;;;;4196460;28;20055;-41
2021/01/21 06:15:58;;;;;;;0.00;0.00;;;16.80;62.50;;;;;;4196317;28;20513;-41
2021/01/21 06:18:19;;;;;;;0.00;0.00;;;16.80;62.10;;;;;;4196186;28;20076;-41
2021/01/21 06:20:43;;;;;;;0.10;0.10;;;17.00;61.70;;;;;;4195193;28;20143;-41
2021/01/21 06:23:24;;;;;;;0.17;0.17;;;17.10;61.00;;;;;;4189501;28;20080;-41
2021/01/21 06:26:12;;;;;;;4.85;1.25;;;17.30;60.20;;;;;;4194937;28;20079;-41
2021/01/21 06:28:34;;;;;;;10.32;1.45;;;17.60;59.60;;;;;;4196106;28;20052;-41
2021/01/21 06:30:58;;;;;;;0.00;0.00;;;17.70;59.10;;;;;;4196459;28;20070;-41
2021/01/21 06:33:25;;;;;;;0.00;0.00;;;17.80;58.70;;;;;;4196265;28;20611;-41
2021/01/21 06:35:52;;;;;;;0.00;0.00;;;18.00;58.20;;;;;;4195597;28;20491;-41
2021/01/21 06:38:16;;;;;;;0.00;0.00;;;18.10;57.70;;;;;;4195987;28;20129;-41
2021/01/21 06:40:40;;;;;;;0.00;0.00;;;18.30;57.40;;;;;;4195900;28;20666;-41
2021/01/21 06:43:05;;;;;;;0.00;0.00;;;18.50;56.70;;;;;;4195421;28;20118;-41
2021/01/21 06:45:27;;;;;;;0.00;0.00;;;18.60;56.20;;;;;;4196324;28;20110;-41
2021/01/21 06:47:48;;;;;;;0.08;0.08;;;18.70;55.90;;;;;;4195870;28;20649;-41
2021/01/21 06:50:11;;;;;;;0.00;0.00;;;18.70;55.90;;;;;;4195646;28;20063;-41
2021/01/21 06:52:36;;;;;;;0.00;0.00;;;18.60;56.00;;;;;;4178115;28;20057;-41
2021/01/21 06:54:58;;;;;;;0.00;0.00;;;18.60;56.00;;;;;;4179588;28;20565;-42
2021/01/21 06:57:43;;;;;;;0.20;0.20;;;18.60;55.80;;;;;;4179335;28;20403;-41
2021/01/21 07:00:06;;;;;;;0.00;0.00;;;18.60;56.00;;;;;;4179061;28;20057;-41
2021/01/21 07:02:40;;;;;;;0.00;0.00;;;18.40;56.40;;;;;;4195265;28;20056;-41
2021/01/21 07:05:08;;;;;;;0.00;0.00;;;18.30;56.70;;;;;;4196065;28;20501;-41
2021/01/21 07:07:59;;;;;;;0.00;0.00;;;18.40;56.70;;;;;;4195779;28;20127;-42
2021/01/21 07:10:22;;;;;;;;;;;18.40;56.50;;;;;;4196078;28;20117;-41
2021/01/21 07:12:44;;;;;;;0.00;0.00;;;18.30;57.50;;;;;;4196039;28;20390;-41
2021/01/21 07:15:09;;;;;;;0.00;0.00;;;18.20;57.00;;;;;;4195205;28;20052;-40
2021/01/21 07:17:30;;;;;;;0.00;0.00;;;18.10;57.40;;;;;;4179218;28;20048;-42
2021/01/21 07:19:58;;;;;;;0.00;0.00;;;18.10;57.80;;;;;;4194213;28;20102;-40
2021/01/21 07:22:21;;;;;;;0.08;0.08;;;18.20;57.50;;;;;;4189616;28;20445;-41
2021/01/21 07:24:56;;;;;;;0.98;0.95;;;18.20;57.20;;;;;;4195858;28;20095;-41
2021/01/21 07:27:19;;;;;;;0.00;0.00;;;18.10;57.10;;;;;;4195739;28;20060;-41
2021/01/21 07:29:42;;;;;;;0.00;0.00;;;18.10;57.30;;;;;;4192000;28;20059;-41
2021/01/21 07:32:06;;;;;;;1.38;1.27;;;18.10;57.20;;;;;;4187215;28;20060;-40
2021/01/21 07:34:29;;;;;;;0.00;0.00;;;18.20;56.90;;;;;;4195212;28;20052;-40
2021/01/21 07:37:18;;;;;;;0.00;0.00;;;18.20;56.60;;;;;;4188617;28;20057;-40
2021/01/21 07:39:59;;;;;;;0.00;0.00;;;18.20;56.70;;;;;;4195518;28;20057;-41
2021/01/21 07:42:21;;;;;;;0.00;0.00;;;18.10;56.90;;;;;;4198281;28;20068;-40
2021/01/21 07:44:53;;;;;;;0.00;0.00;;;18.00;57.20;;;;;;4198499;28;20526;-41
2021/01/21 07:47:28;;;;;;;1.02;1.02;;;17.80;57.50;;;;;;4199103;28;20074;-40
2021/01/21 07:49:50;;;;;;;0.00;0.00;;;17.70;57.90;;;;;;4198408;28;20048;-43
2021/01/21 07:52:10;;;;;;;0.00;0.00;;;17.70;57.90;;;;;;4198661;28;20576;-41
2021/01/21 07:54:43;;;;;;;0.00;0.00;;;17.60;57.90;;;;;;4198741;28;20102;-40
2021/01/21 07:57:04;;;;;;;0.00;0.00;;;17.60;58.10;;;;;;4182193;28;20053;-40
2021/01/21 07:59:25;;;;;;;0.00;0.00;;;17.50;58.30;;;;;;4195530;28;20143;-41
2021/01/21 08:01:57;;;;;;;0.00;0.00;;;17.50;58.40;;;;;;4184670;28;20068;-41
2021/01/21 08:04:18;;;;;;;0.22;0.22;;;17.50;58.20;;;;;;4193144;28;20143;-40
2021/01/21 08:06:53;;;;;;;0.00;0.00;;;17.40;58.10;;;;;;4197978;28;20060;-40
2021/01/21 08:09:20;;;;;;;0.00;0.00;;;17.50;58.20;;;;;;4198635;28;20060;-40
2021/01/21 08:11:41;;;;;;;0.00;0.00;;;17.40;58.30;;;;;;4198216;28;20056;-41
2021/01/21 08:14:02;;;;;;;0.00;0.00;;;17.40;58.40;;;;;;4186201;28;20055;-41
2021/01/21 08:16:23;;;;;;;;;;;17.40;58.40;;;;;;4195983;28;20414;-41
2021/01/21 08:18:46;;;;;;;0.00;0.00;;;17.40;58.40;;;;;;4198322;28;19921;-41
2021/01/21 08:21:20;;;;;;;0.00;0.00;;;17.40;58.20;;;;;;4198038;28;20515;-40
2021/01/21 08:23:50;;;;;;;0.00;0.00;;;17.40;58.10;;;;;;4198075;28;20082;-41
2021/01/21 08:26:17;;;;;;;0.00;0.00;;;17.50;57.90;;;;;;4197936;28;20049;-40
2021/01/21 08:28:37;;;;;;;0.00;0.00;;;17.50;57.80;;;;;;4198165;28;20056;-41
2021/01/21 08:30:58;;;;;;;0.00;0.00;;;17.50;57.90;;;;;;4197925;28;20421;-41
2021/01/21 08:33:22;;;;;;;0.00;0.00;;;17.50;58.10;;;;;;4198080;28;20060;-41
2021/01/21 08:35:50;;;;;;;0.00;0.00;;;17.50;58.10;;;;;;4197449;28;20125;-42
2021/01/21 08:38:14;;;;;;;0.00;0.00;;;17.50;58.00;;;;;;4195977;28;20052;-40
2021/01/21 08:40:37;;;;;;;0.00;0.00;;;17.70;57.60;;;;;;4197926;28;20048;-41
2021/01/21 08:42:59;;;;;;;0.00;0.00;;;17.70;57.30;;;;;;4197784;28;20510;-41
2021/01/21 08:45:28;;;;;;;1.10;1.08;;;17.70;57.10;;;;;;4197650;28;20444;-41
2021/01/21 08:47:50;;;;;;;0.00;0.00;;;17.70;57.40;;;;;;4197867;28;20499;-41
2021/01/21 08:50:13;;;;;;;0.00;0.00;;;17.60;57.60;;;;;;4197255;28;20044;-41
2021/01/21 08:52:36;;;;;;;0.00;0.00;;;17.50;57.80;;;;;;4197614;28;20048;-42
2021/01/21 08:54:57;;;;;;;0.70;0.70;;;17.30;58.10;;;;;;4190922;28;20049;-42
2021/01/21 08:57:20;;;;;;;0.00;0.00;;;17.30;58.30;;;;;;4197413;28;20143;-41
2021/01/21 08:59:42;;;;;;;0.00;0.00;;;17.40;58.20;;;;;;4197352;28;20052;-41
2021/01/21 09:02:04;;;;;;;0.15;0.15;;;17.30;58.20;;;;;;4196958;28;20040;-41
2021/01/21 09:04:31;;;;;;;0.25;0.25;;;17.30;58.30;;;;;;4197405;28;20395;-41
2021/01/21 09:06:55;;;;;;;0.00;0.00;;;17.30;58.40;;;;;;4196732;28;20059;-42
2021/01/21 09:09:25;;;;;;;0.00;0.00;;;17.30;58.30;;;;;;4196802;28;20568;-41
2021/01/21 09:11:46;;;;;;;0.00;0.00;;;17.30;58.10;;;;;;4196062;28;20103;-41
2021/01/21 09:14:15;;;;;;;0.00;0.00;;;17.30;58.10;;;;;;4186603;28;20514;-42
2021/01/21 09:16:40;;;;;;;0.00;0.00;;;17.30;58.20;;;;;;4196231;28;20582;-42
2021/01/21 09:19:01;;;;;;;0.00;0.00;;;17.20;58.30;;;;;;4197790;28;20128;-42
2021/01/21 09:21:22;;;;;;;0.00;0.00;;;17.20;58.50;;;;;;4197100;28;20045;-41
2021/01/21 09:23:43;;;;;;;0.63;0.63;;;17.20;58.40;;;;;;4197204;28;20054;-42
2021/01/21 09:26:12;;;;;;;0.10;0.10;;;17.30;58.20;;;;;;4197106;28;20060;-41
2021/01/21 09:28:50;;;;;;;0.00;0.00;;;17.30;57.90;;;;;;4196991;28;20052;-41
2021/01/21 09:31:12;;;;;;;0.00;0.00;;;17.30;58.10;;;;;;4196986;28;20045;-42
2021/01/21 09:33:33;;;;;;;0.75;0.75;;;17.20;58.10;;;;;;4196873;28;20044;-41
2021/01/21 09:35:54;;;;;;;0.00;0.00;;;17.20;58.30;;;;;;4196663;28;20060;-42
2021/01/21 09:38:17;;;;;;;0.00;0.00;;;17.10;58.50;;;;;;4196974;28;20062;-41
2021/01/21 09:40:41;;;;;;;0.65;0.65;;;17.00;58.60;;;;;;4197404;28;20079;-41
2021/01/21 09:43:05;;;;;;;0.00;0.00;;;16.90;58.90;;;;;;4196695;28;20126;-42
2021/01/21 09:45:27;;;;;;;0.00;0.00;;;16.80;59.00;;;;;;4180211;28;20053;-41
2021/01/21 09:47:50;;;;;;;0.00;0.00;;;16.80;59.30;;;;;;4180214;28;20052;-41
2021/01/21 09:50:12;;;;;;;0.00;0.00;;;16.80;59.40;;;;;;4181223;28;20072;-41
2021/01/21 09:52:33;;;;;;;0.00;0.00;;;16.80;59.20;;;;;;4189273;28;20053;-41
2021/01/21 09:54:54;;;;;;;0.00;0.00;;;16.90;58.90;;;;;;4191015;28;20051;-42
2021/01/21 09:57:15;;;;;;;0.08;0.08;;;16.90;58.70;;;;;;4194628;28;20054;-42
2021/01/21 09:59:37;;;;;;;0.00;0.00;;;16.90;58.70;;;;;;4197402;28;20074;-41
2021/01/21 10:01:59;;;;;;;0.35;0.35;;;16.90;58.70;;;;;;4197214;28;20062;-42
2021/01/21 10:04:20;;;;;;;0.55;0.55;;;16.80;58.70;;;;;;4195857;28;20505;-42
2021/01/21 10:06:41;;;;;;;0.00;0.00;;;16.80;59.60;;;;;;4191207;28;20059;-41
2021/01/21 10:09:02;;;;;;;0.00;0.00;;;16.80;59.00;;;;;;4180497;28;20052;-41
2021/01/21 10:11:23;;;;;;;0.00;0.00;;;16.90;58.70;;;;;;4193743;28;20060;-41
2021/01/21 10:13:44;;;;;;;0.00;0.00;;;17.10;58.20;;;;;;4194884;28;20056;-41
2021/01/21 10:16:08;;;;;;;0.10;0.10;;;17.10;57.80;;;;;;4196438;28;20052;-41
2021/01/21 10:18:29;;;;;;;0.10;0.10;;;17.20;57.70;;;;;;4196355;28;20056;-45
2021/01/21 10:20:51;;;;;;;0.00;0.00;;;17.10;57.70;;;;;;4195970;28;20056;-41
2021/01/21 10:23:11;;;;;;;0.00;0.00;;;17.10;57.80;;;;;;4196858;28;20048;-41
2021/01/21 10:25:32;;;;;;;0.38;0.38;;;17.00;57.90;;;;;;4196099;28;20048;-41
2021/01/21 10:27:53;;;;;;;0.00;0.00;;;16.90;58.10;;;;;;4179610;28;20053;-41
2021/01/21 10:30:16;;;;;;;0.00;0.00;;;16.90;58.10;;;;;;4194700;28;20060;-41
2021/01/21 10:32:38;;;;;;;0.22;0.22;;;17.10;57.80;;;;;;4193682;28;20133;-41
2021/01/21 10:34:59;;;;;;;0.00;0.00;;;17.10;57.60;;;;;;4191485;28;20057;-41
2021/01/21 10:37:20;;;;;;;;;;;17.10;57.50;;;;;;4193382;28;20056;-40
2021/01/21 10:39:50;;;;;;;1.45;1.00;;;17.10;57.50;;;;;;4196064;28;19928;-42
2021/01/21 10:42:10;;;;;;;0.10;0.10;;;17.00;57.70;;;;;;4195420;28;20059;-41
2021/01/21 10:44:31;;;;;;;0.20;0.20;;;17.00;57.90;;;;;;4196032;28;20048;-41
2021/01/21 10:46:52;;;;;;;0.00;0.00;;;17.00;57.90;;;;;;4194405;28;20044;-41
2021/01/21 10:49:14;;;;;;;0.00;0.00;;;17.10;57.60;;;;;;4195737;28;20520;-41
2021/01/21 10:51:35;;;;;;;0.00;0.00;;;17.20;57.40;;;;;;4195904;28;20130;-41
2021/01/21 10:53:56;;;;;;;0.00;0.00;;;17.20;57.20;;;;;;4196023;28;20055;-41
2021/01/21 10:56:17;;;;;;;;;;;17.20;57.10;;;;;;4196284;28;20072;-41
2021/01/21 10:58:40;;;;;;;0.10;0.10;;;17.10;57.10;;;;;;4195692;28;19920;-41
2021/01/21 11:01:01;;;;;;;0.43;0.43;;;17.10;57.30;;;;;;4196007;28;20084;-42
2021/01/21 11:03:22;;;;;;;0.20;0.20;;;17.00;57.40;;;;;;4195921;28;20532;-42
2021/01/21 11:05:44;;;;;;;;;;;16.90;57.60;;;;;;4193973;28;20048;-41
2021/01/21 11:08:05;;;;;;;;;;;16.90;57.70;;;;;;4195888;28;20014;-41
2021/01/21 11:10:26;;;;;;;0.20;0.20;;;17.00;57.60;;;;;;4196034;28;20337;-42
2021/01/21 11:12:48;;;;;;;0.00;0.00;;;17.00;57.60;;;;;;4195743;28;20449;-41
2021/01/21 11:15:09;;;;;;;0.00;0.00;;;17.00;57.60;;;;;;4195544;28;20560;-42
2021/01/21 11:17:30;;;;;;;0.00;0.00;;;16.90;57.60;;;;;;4195558;28;20166;-41
2021/01/21 11:19:51;;;;;;;0.00;0.00;;;16.80;57.70;;;;;;4193954;28;20059;-41
2021/01/21 11:22:13;;;;;;;0.22;0.22;;;16.80;57.80;;;;;;4195313;28;20151;-42
2021/01/21 11:24:34;;;;;;;0.00;0.00;;;16.90;57.60;;;;;;4195961;28;20135;-42
2021/01/21 11:26:55;;;;;;;0.00;0.00;;;17.00;57.40;;;;;;4195578;28;20098;-42
2021/01/21 11:29:16;;;;;;;0.65;0.30;;;17.10;57.30;;;;;;4195828;28;20052;-41
2021/01/21 11:31:36;;;;;;;0.00;0.00;;;17.00;57.20;;;;;;4195346;28;20057;-41
2021/01/21 11:33:57;;;;;;;0.00;0.00;;;16.90;57.40;;;;;;4195584;28;20056;-41
2021/01/21 11:36:19;;;;;;;0.00;0.00;;;16.90;57.50;;;;;;4190592;28;20064;-41
2021/01/21 11:38:41;;;;;;;0.00;0.00;;;16.80;57.60;;;;;;4195228;28;20048;-41
2021/01/21 11:41:02;;;;;;;0.95;0.95;;;16.70;57.70;;;;;;4194600;28;20044;-41
2021/01/21 11:43:26;;;;;;;0.03;0.03;;;16.70;57.90;;;;;;4195818;28;20131;-41
2021/01/21 11:45:47;;;;;;;0.00;0.00;;;16.60;58.10;;;;;;4195393;28;20052;-41
2021/01/21 11:48:09;;;;;;;0.47;0.47;;;16.60;58.30;;;;;;4195051;28;20056;-41
2021/01/21 11:50:30;;;;;;;0.00;0.00;;;16.80;57.90;;;;;;4195075;28;20498;-42
2021/01/21 11:52:51;;;;;;;0.03;0.03;;;17.00;57.30;;;;;;4196021;28;20060;-41
2021/01/21 11:55:13;;;;;;;0.00;0.00;;;17.10;57.10;;;;;;4195208;28;20106;-44
2021/01/21 11:57:35;;;;;;;0.00;0.00;;;17.10;57.00;;;;;;4195300;28;20486;-44
2021/01/21 11:59:59;;;;;;;0.00;0.00;;;17.20;57.10;;;;;;4195621;28;20056;-41
2021/01/21 12:02:20;;;;;;;0.00;0.00;;;17.10;57.90;;;;;;4195075;28;20135;-41
2021/01/21 12:04:41;;;;;;;0.10;0.10;;;17.00;57.40;;;;;;4194892;28;20059;-42
2021/01/21 12:07:05;;;;;;;0.00;0.00;;;17.00;57.70;;;;;;4195285;28;20495;-41
2021/01/21 12:09:26;;;;;;;0.00;0.00;;;16.80;58.00;;;;;;4195213;28;20506;-41
2021/01/21 12:11:48;;;;;;;0.00;0.00;;;16.80;58.30;;;;;;4195609;28;20122;-40
2021/01/21 12:14:09;;;;;;;0.00;0.00;;;16.70;58.40;;;;;;4178545;28;20048;-41
2021/01/21 12:16:30;;;;;;;0.22;0.15;;;16.70;58.50;;;;;;4192361;28;20053;-42
2021/01/21 12:18:54;;;;;;;0.00;0.00;;;16.70;58.30;;;;;;4195056;28;20052;-42
2021/01/21 12:21:15;;;;;;;0.10;0.10;;;16.80;58.10;;;;;;4194358;28;20056;-41
2021/01/21 12:23:36;;;;;;;0.00;0.00;;;16.90;57.60;;;;;;4194107;28;20048;-41
2021/01/21 12:25:57;;;;;;;0.00;0.00;;;17.00;57.30;;;;;;4194587;28;20056;-42
2021/01/21 12:28:19;;;;;;;0.00;0.00;;;17.10;57.40;;;;;;4196938;28;20056;-41
2021/01/21 12:30:39;;;;;;;0.00;0.00;;;17.00;57.20;;;;;;4189340;28;20052;-41
2021/01/21 12:33:00;;;;;;;0.10;0.10;;;16.90;57.30;;;;;;4198045;28;20135;-42
2021/01/21 12:35:23;;;;;;;0.00;0.00;;;17.00;57.30;;;;;;4197697;28;20067;-42
2021/01/21 12:37:43;;;;;;;0.03;0.03;;;17.10;57.10;;;;;;4197923;28;20135;-42
2021/01/21 12:40:06;;;;;;;0.00;0.00;;;17.10;57.00;;;;;;4197628;28;20054;-42
2021/01/21 12:42:28;;;;;;;0.00;0.00;;;17.00;56.90;;;;;;4198010;28;20059;-41